sensor_id;sensor_type;location;lat;lon;timestamp;temperature;humidity
39503;DHT22;26970;49.900;10.774;2022-08-21T00:01:27;15.70;99.90
39503;DHT22;26970;49.900;10.774;2022-08-21T00:03:54;15.70;99.90
39503;DHT22;26970;49.900;10.774;2022-08-21T00:06:20;15.60;99.90
39503;DHT22;26970;49.900;10.774;2022-08-21T00:08:46;15.50;99.90
39503;DHT22;26970;49.900;10.774;2022-08-21T00:11:12;15.50;99.90
39503;DHT22;26970;49.900;10.774;2022-08-21T00:13:38;15.30;99.90
39503;DHT22;26970;49.900;10.774;2022-08-21T00:16:04;15.30;99.90
39503;DHT22;26970;49.900;10.774;2022-08-21T00:18:30;15.40;99.90
39503;DHT22;26970;49.900;10.774;2022-08-21T00:20:55;15.30;99.90
39503;DHT22;26970;49.900;10.774;2022-08-21T00:23:21;15.30;99.90
39503;DHT22;26970;49.900;10.774;2022-08-21T00:25:47;15.40;99.90
39503;DHT22;26970;49.900;10.774;2022-08-21T00:28:13;15.40;99.90
39503;DHT22;26970;49.900;10.774;2022-08-21T00:30:39;15.50;99.90
39503;DHT22;26970;49.900;10.774;2022-08-21T00:33:06;15.40;99.90
39503;DHT22;26970;49.900;10.774;2022-08-21T00:35:38;15.40;99.90
39503;DHT22;26970;49.900;10.774;2022-08-21T00:38:05;15.30;99.90
39503;DHT22;26970;49.900;10.774;2022-08-21T00:40:35;15.30;99.90
39503;DHT22;26970;49.900;10.774;2022-08-21T00:43:04;15.30;99.90
39503;DHT22;26970;49.900;10.774;2022-08-21T00:45:31;15.30;99.90
39503;DHT22;26970;49.900;10.774;2022-08-21T00:47:57;15.30;99.90
39503;DHT22;26970;49.900;10.774;2022-08-21T00:50:26;15.40;99.90
39503;DHT22;26970;49.900;10.774;2022-08-21T00:52:53;15.30;99.90
39503;DHT22;26970;49.900;10.774;2022-08-21T00:55:20;15.30;99.90
39503;DHT22;26970;49.900;10.774;2022-08-21T00:57:48;15.30;99.90
39503;DHT22;26970;49.900;10.774;2022-08-21T01:00:21;15.40;99.90
39503;DHT22;26970;49.900;10.774;2022-08-21T01:02:47;15.40;99.90
39503;DHT22;26970;49.900;10.774;2022-08-21T01:05:13;15.50;99.90
39503;DHT22;26970;49.900;10.774;2022-08-21T01:07:39;15.40;99.90
39503;DHT22;26970;49.900;10.774;2022-08-21T01:10:06;15.40;99.90
39503;DHT22;26970;49.900;10.774;2022-08-21T01:12:33;15.40;99.90
39503;DHT22;26970;49.900;10.774;2022-08-21T01:15:02;15.30;99.90
39503;DHT22;26970;49.900;10.774;2022-08-21T01:17:28;15.40;99.90
39503;DHT22;26970;49.900;10.774;2022-08-21T01:20:00;15.40;99.90
39503;DHT22;26970;49.900;10.774;2022-08-21T01:22:26;15.40;99.90
39503;DHT22;26970;49.900;10.774;2022-08-21T01:24:52;15.40;99.90
39503;DHT22;26970;49.900;10.774;2022-08-21T01:27:18;15.40;99.90
39503;DHT22;26970;49.900;10.774;2022-08-21T01:30:24;15.40;99.90
39503;DHT22;26970;49.900;10.774;2022-08-21T01:32:49;15.50;99.90
39503;DHT22;26970;49.900;10.774;2022-08-21T01:35:17;15.40;99.90
39503;DHT22;26970;49.900;10.774;2022-08-21T01:37:44;15.40;99.90
39503;DHT22;26970;49.900;10.774;2022-08-21T01:40:11;15.40;99.90
39503;DHT22;26970;49.900;10.774;2022-08-21T01:42:38;15.40;99.90
39503;DHT22;26970;49.900;10.774;2022-08-21T01:45:06;15.40;99.90
39503;DHT22;26970;49.900;10.774;2022-08-21T01:47:32;15.40;99.90
39503;DHT22;26970;49.900;10.774;2022-08-21T01:49:58;15.40;99.90
39503;DHT22;26970;49.900;10.774;2022-08-21T01:52:25;15.40;99.90
39503;DHT22;26970;49.900;10.774;2022-08-21T01:54:50;15.40;99.90
39503;DHT22;26970;49.900;10.774;2022-08-21T01:57:16;15.40;99.90
39503;DHT22;26970;49.900;10.774;2022-08-21T01:59:42;15.40;99.90
39503;DHT22;26970;49.900;10.774;2022-08-21T02:02:08;15.30;99.90
39503;DHT22;26970;49.900;10.774;2022-08-21T02:04:33;15.40;99.90
39503;DHT22;26970;49.900;10.774;2022-08-21T02:07:00;15.30;99.90
39503;DHT22;26970;49.900;10.774;2022-08-21T02:09:26;15.30;99.90
39503;DHT22;26970;49.900;10.774;2022-08-21T02:11:52;15.40;99.90
39503;DHT22;26970;49.900;10.774;2022-08-21T02:14:18;15.40;99.90
39503;DHT22;26970;49.900;10.774;2022-08-21T02:16:44;15.40;99.90
39503;DHT22;26970;49.900;10.774;2022-08-21T02:19:12;15.30;99.90
39503;DHT22;26970;49.900;10.774;2022-08-21T02:21:38;15.40;99.90
39503;DHT22;26970;49.900;10.774;2022-08-21T02:24:05;15.40;99.90
39503;DHT22;26970;49.900;10.774;2022-08-21T02:26:30;15.40;99.90
39503;DHT22;26970;49.900;10.774;2022-08-21T02:28:56;15.40;99.90
39503;DHT22;26970;49.900;10.774;2022-08-21T02:31:21;15.40;99.90
39503;DHT22;26970;49.900;10.774;2022-08-21T02:33:47;15.30;99.90
39503;DHT22;26970;49.900;10.774;2022-08-21T02:36:13;15.30;99.90
39503;DHT22;26970;49.900;10.774;2022-08-21T02:38:41;15.30;99.90
39503;DHT22;26970;49.900;10.774;2022-08-21T02:41:10;15.30;99.90
39503;DHT22;26970;49.900;10.774;2022-08-21T02:43:35;15.30;99.90
39503;DHT22;26970;49.900;10.774;2022-08-21T02:46:03;15.40;99.90
39503;DHT22;26970;49.900;10.774;2022-08-21T02:48:30;15.30;99.90
39503;DHT22;26970;49.900;10.774;2022-08-21T02:51:17;15.30;99.90
39503;DHT22;26970;49.900;10.774;2022-08-21T02:53:44;15.30;99.90
39503;DHT22;26970;49.900;10.774;2022-08-21T02:56:13;15.30;99.90
39503;DHT22;26970;49.900;10.774;2022-08-21T02:58:46;15.30;99.90
39503;DHT22;26970;49.900;10.774;2022-08-21T03:01:12;15.30;99.90
39503;DHT22;26970;49.900;10.774;2022-08-21T03:03:41;15.30;99.90
39503;DHT22;26970;49.900;10.774;2022-08-21T03:06:08;15.30;99.90
39503;DHT22;26970;49.900;10.774;2022-08-21T03:08:35;15.20;99.90
39503;DHT22;26970;49.900;10.774;2022-08-21T03:11:01;15.20;99.90
39503;DHT22;26970;49.900;10.774;2022-08-21T03:13:27;15.20;99.90
39503;DHT22;26970;49.900;10.774;2022-08-21T03:15:53;15.20;99.90
39503;DHT22;26970;49.900;10.774;2022-08-21T03:18:19;15.20;99.90
39503;DHT22;26970;49.900;10.774;2022-08-21T03:20:45;15.20;99.90
39503;DHT22;26970;49.900;10.774;2022-08-21T03:23:11;15.20;99.90
39503;DHT22;26970;49.900;10.774;2022-08-21T03:25:38;15.20;99.90
39503;DHT22;26970;49.900;10.774;2022-08-21T03:28:05;15.20;99.90
39503;DHT22;26970;49.900;10.774;2022-08-21T03:30:31;15.20;99.90
39503;DHT22;26970;49.900;10.774;2022-08-21T03:32:58;15.20;99.90
39503;DHT22;26970;49.900;10.774;2022-08-21T03:35:25;15.20;99.90
39503;DHT22;26970;49.900;10.774;2022-08-21T03:37:51;15.20;99.90
39503;DHT22;26970;49.900;10.774;2022-08-21T03:40:18;15.20;99.90
39503;DHT22;26970;49.900;10.774;2022-08-21T03:42:44;15.20;99.90
39503;DHT22;26970;49.900;10.774;2022-08-21T03:45:13;15.30;99.90
39503;DHT22;26970;49.900;10.774;2022-08-21T03:47:49;15.30;99.90
39503;DHT22;26970;49.900;10.774;2022-08-21T03:50:15;15.30;99.90
39503;DHT22;26970;49.900;10.774;2022-08-21T03:52:42;15.30;99.90
39503;DHT22;26970;49.900;10.774;2022-08-21T03:55:07;15.30;99.90
39503;DHT22;26970;49.900;10.774;2022-08-21T03:57:33;15.30;99.90
39503;DHT22;26970;49.900;10.774;2022-08-21T03:59:58;15.40;99.90
39503;DHT22;26970;49.900;10.774;2022-08-21T04:02:24;15.40;99.90
39503;DHT22;26970;49.900;10.774;2022-08-21T04:04:50;15.40;99.90
39503;DHT22;26970;49.900;10.774;2022-08-21T04:07:16;15.40;99.90
39503;DHT22;26970;49.900;10.774;2022-08-21T04:09:42;15.40;99.90
39503;DHT22;26970;49.900;10.774;2022-08-21T04:12:08;15.40;99.90
39503;DHT22;26970;49.900;10.774;2022-08-21T04:14:34;15.40;99.90
39503;DHT22;26970;49.900;10.774;2022-08-21T04:16:59;15.30;99.90
39503;DHT22;26970;49.900;10.774;2022-08-21T04:19:24;15.30;99.90
39503;DHT22;26970;49.900;10.774;2022-08-21T04:21:50;15.20;99.90
39503;DHT22;26970;49.900;10.774;2022-08-21T04:24:16;15.20;99.90
39503;DHT22;26970;49.900;10.774;2022-08-21T04:26:41;15.20;99.90
39503;DHT22;26970;49.900;10.774;2022-08-21T04:29:07;15.20;99.90
39503;DHT22;26970;49.900;10.774;2022-08-21T04:31:34;15.20;99.90
39503;DHT22;26970;49.900;10.774;2022-08-21T04:34:02;15.20;99.90
39503;DHT22;26970;49.900;10.774;2022-08-21T04:36:27;15.20;99.90
39503;DHT22;26970;49.900;10.774;2022-08-21T04:38:53;15.20;99.90
39503;DHT22;26970;49.900;10.774;2022-08-21T04:41:18;15.10;99.90
39503;DHT22;26970;49.900;10.774;2022-08-21T04:43:44;15.10;99.90
39503;DHT22;26970;49.900;10.774;2022-08-21T04:46:09;15.10;99.90
39503;DHT22;26970;49.900;10.774;2022-08-21T04:48:35;15.10;99.90
39503;DHT22;26970;49.900;10.774;2022-08-21T04:53:43;15.10;99.90
39503;DHT22;26970;49.900;10.774;2022-08-21T04:56:27;15.10;99.90
39503;DHT22;26970;49.900;10.774;2022-08-21T04:58:55;15.10;99.90
39503;DHT22;26970;49.900;10.774;2022-08-21T05:01:24;15.10;99.90
39503;DHT22;26970;49.900;10.774;2022-08-21T05:03:55;15.20;99.90
39503;DHT22;26970;49.900;10.774;2022-08-21T05:06:22;15.30;99.90
39503;DHT22;26970;49.900;10.774;2022-08-21T05:08:52;15.20;99.90
39503;DHT22;26970;49.900;10.774;2022-08-21T05:11:19;15.20;99.90
39503;DHT22;26970;49.900;10.774;2022-08-21T05:13:45;15.30;99.90
39503;DHT22;26970;49.900;10.774;2022-08-21T05:16:11;15.30;99.90
39503;DHT22;26970;49.900;10.774;2022-08-21T05:18:37;15.20;99.90
39503;DHT22;26970;49.900;10.774;2022-08-21T05:21:03;15.10;99.90
39503;DHT22;26970;49.900;10.774;2022-08-21T05:23:29;15.20;99.90
39503;DHT22;26970;49.900;10.774;2022-08-21T05:25:54;15.10;99.90
39503;DHT22;26970;49.900;10.774;2022-08-21T05:28:21;15.10;99.90
39503;DHT22;26970;49.900;10.774;2022-08-21T05:30:46;15.10;99.90
39503;DHT22;26970;49.900;10.774;2022-08-21T05:33:12;15.10;99.90
39503;DHT22;26970;49.900;10.774;2022-08-21T05:35:38;15.10;99.90
39503;DHT22;26970;49.900;10.774;2022-08-21T05:38:05;15.20;99.90
39503;DHT22;26970;49.900;10.774;2022-08-21T05:40:31;15.20;99.90
39503;DHT22;26970;49.900;10.774;2022-08-21T05:42:57;15.10;99.90
39503;DHT22;26970;49.900;10.774;2022-08-21T05:45:27;15.10;99.90
39503;DHT22;26970;49.900;10.774;2022-08-21T05:47:53;15.20;99.90
39503;DHT22;26970;49.900;10.774;2022-08-21T05:50:19;15.20;99.90
39503;DHT22;26970;49.900;10.774;2022-08-21T05:52:45;15.20;99.90
39503;DHT22;26970;49.900;10.774;2022-08-21T05:55:10;15.20;99.90
39503;DHT22;26970;49.900;10.774;2022-08-21T05:57:36;15.10;99.90
39503;DHT22;26970;49.900;10.774;2022-08-21T06:00:03;15.10;99.90
39503;DHT22;26970;49.900;10.774;2022-08-21T06:02:28;15.00;99.90
39503;DHT22;26970;49.900;10.774;2022-08-21T06:04:56;15.00;99.90
39503;DHT22;26970;49.900;10.774;2022-08-21T06:07:22;15.10;99.90
39503;DHT22;26970;49.900;10.774;2022-08-21T06:09:47;15.00;99.90
39503;DHT22;26970;49.900;10.774;2022-08-21T06:12:13;15.00;99.90
39503;DHT22;26970;49.900;10.774;2022-08-21T06:14:40;15.10;99.90
39503;DHT22;26970;49.900;10.774;2022-08-21T06:17:08;15.10;99.90
39503;DHT22;26970;49.900;10.774;2022-08-21T06:19:34;15.10;99.90
39503;DHT22;26970;49.900;10.774;2022-08-21T06:22:01;15.20;99.90
39503;DHT22;26970;49.900;10.774;2022-08-21T06:24:27;15.20;99.90
39503;DHT22;26970;49.900;10.774;2022-08-21T06:26:53;15.20;99.90
39503;DHT22;26970;49.900;10.774;2022-08-21T06:29:20;15.30;99.90
39503;DHT22;26970;49.900;10.774;2022-08-21T06:31:46;15.30;99.90
39503;DHT22;26970;49.900;10.774;2022-08-21T06:34:13;15.40;99.90
39503;DHT22;26970;49.900;10.774;2022-08-21T06:36:38;15.50;99.90
39503;DHT22;26970;49.900;10.774;2022-08-21T06:39:04;15.40;99.90
39503;DHT22;26970;49.900;10.774;2022-08-21T06:41:30;15.40;99.90
39503;DHT22;26970;49.900;10.774;2022-08-21T06:43:57;15.40;99.90
39503;DHT22;26970;49.900;10.774;2022-08-21T06:46:27;15.40;99.90
39503;DHT22;26970;49.900;10.774;2022-08-21T06:48:53;15.50;99.90
39503;DHT22;26970;49.900;10.774;2022-08-21T06:51:19;15.50;99.90
39503;DHT22;26970;49.900;10.774;2022-08-21T06:53:45;15.60;99.90
39503;DHT22;26970;49.900;10.774;2022-08-21T06:56:11;15.70;99.90
39503;DHT22;26970;49.900;10.774;2022-08-21T06:58:37;15.70;99.90
39503;DHT22;26970;49.900;10.774;2022-08-21T07:01:03;15.60;99.90
39503;DHT22;26970;49.900;10.774;2022-08-21T07:03:33;15.60;99.90
39503;DHT22;26970;49.900;10.774;2022-08-21T07:05:59;15.70;99.90
39503;DHT22;26970;49.900;10.774;2022-08-21T07:08:26;15.60;99.90
39503;DHT22;26970;49.900;10.774;2022-08-21T07:10:55;15.60;99.90
39503;DHT22;26970;49.900;10.774;2022-08-21T07:13:21;15.60;99.90
39503;DHT22;26970;49.900;10.774;2022-08-21T07:15:47;15.60;99.90
39503;DHT22;26970;49.900;10.774;2022-08-21T07:18:12;15.60;99.90
39503;DHT22;26970;49.900;10.774;2022-08-21T07:20:38;15.60;99.90
39503;DHT22;26970;49.900;10.774;2022-08-21T07:23:06;15.60;99.90
39503;DHT22;26970;49.900;10.774;2022-08-21T07:25:33;15.60;99.90
39503;DHT22;26970;49.900;10.774;2022-08-21T07:27:59;15.60;99.90
39503;DHT22;26970;49.900;10.774;2022-08-21T07:30:25;15.70;99.90
39503;DHT22;26970;49.900;10.774;2022-08-21T07:32:51;16.00;99.90
39503;DHT22;26970;49.900;10.774;2022-08-21T07:35:18;16.00;99.90
39503;DHT22;26970;49.900;10.774;2022-08-21T07:37:44;15.90;99.90
39503;DHT22;26970;49.900;10.774;2022-08-21T07:40:10;15.90;99.90
39503;DHT22;26970;49.900;10.774;2022-08-21T07:42:40;15.90;99.90
39503;DHT22;26970;49.900;10.774;2022-08-21T07:45:07;16.10;99.90
39503;DHT22;26970;49.900;10.774;2022-08-21T07:47:32;16.20;99.90
39503;DHT22;26970;49.900;10.774;2022-08-21T07:49:58;16.20;99.90
39503;DHT22;26970;49.900;10.774;2022-08-21T07:52:23;16.20;99.90
39503;DHT22;26970;49.900;10.774;2022-08-21T07:54:49;16.20;99.90
39503;DHT22;26970;49.900;10.774;2022-08-21T07:57:15;16.10;99.90
39503;DHT22;26970;49.900;10.774;2022-08-21T07:59:41;16.10;99.90
39503;DHT22;26970;49.900;10.774;2022-08-21T08:02:06;16.10;99.90
39503;DHT22;26970;49.900;10.774;2022-08-21T08:04:32;16.20;99.90
39503;DHT22;26970;49.900;10.774;2022-08-21T08:06:57;16.30;99.90
39503;DHT22;26970;49.900;10.774;2022-08-21T08:09:23;16.30;99.90
39503;DHT22;26970;49.900;10.774;2022-08-21T08:11:48;16.40;99.90
39503;DHT22;26970;49.900;10.774;2022-08-21T08:14:14;16.50;99.90
39503;DHT22;26970;49.900;10.774;2022-08-21T08:16:40;16.60;99.90
39503;DHT22;26970;49.900;10.774;2022-08-21T08:19:06;16.60;99.90
39503;DHT22;26970;49.900;10.774;2022-08-21T08:21:32;16.70;99.90
39503;DHT22;26970;49.900;10.774;2022-08-21T08:23:59;16.60;99.90
39503;DHT22;26970;49.900;10.774;2022-08-21T08:26:24;16.70;99.90
39503;DHT22;26970;49.900;10.774;2022-08-21T08:28:50;16.90;99.90
39503;DHT22;26970;49.900;10.774;2022-08-21T08:31:15;17.10;99.90
39503;DHT22;26970;49.900;10.774;2022-08-21T08:33:41;17.00;99.90
39503;DHT22;26970;49.900;10.774;2022-08-21T08:36:13;17.20;99.90
39503;DHT22;26970;49.900;10.774;2022-08-21T08:38:39;17.30;99.90
39503;DHT22;26970;49.900;10.774;2022-08-21T08:41:17;17.50;99.90
39503;DHT22;26970;49.900;10.774;2022-08-21T08:44:04;17.60;99.90
39503;DHT22;26970;49.900;10.774;2022-08-21T08:46:48;17.70;99.90
39503;DHT22;26970;49.900;10.774;2022-08-21T08:49:24;17.70;99.90
39503;DHT22;26970;49.900;10.774;2022-08-21T08:52:02;17.80;99.90
39503;DHT22;26970;49.900;10.774;2022-08-21T08:54:33;18.00;99.90
39503;DHT22;26970;49.900;10.774;2022-08-21T08:57:02;18.10;99.90
39503;DHT22;26970;49.900;10.774;2022-08-21T08:59:40;18.20;99.90
39503;DHT22;26970;49.900;10.774;2022-08-21T09:02:09;18.20;99.90
39503;DHT22;26970;49.900;10.774;2022-08-21T09:04:35;18.30;99.90
39503;DHT22;26970;49.900;10.774;2022-08-21T09:21:04;18.50;99.90
39503;DHT22;26970;49.900;10.774;2022-08-21T09:23:49;18.60;99.90
39503;DHT22;26970;49.900;10.774;2022-08-21T09:26:25;18.60;99.90
39503;DHT22;26970;49.900;10.774;2022-08-21T09:28:53;18.80;99.90
39503;DHT22;26970;49.900;10.774;2022-08-21T09:31:27;18.90;99.90
39503;DHT22;26970;49.900;10.774;2022-08-21T09:33:59;19.00;99.90
39503;DHT22;26970;49.900;10.774;2022-08-21T09:36:31;19.10;99.90
39503;DHT22;26970;49.900;10.774;2022-08-21T09:38:58;19.20;99.90
39503;DHT22;26970;49.900;10.774;2022-08-21T09:41:33;19.20;99.90
39503;DHT22;26970;49.900;10.774;2022-08-21T09:44:00;19.30;99.90
39503;DHT22;26970;49.900;10.774;2022-08-21T09:46:27;19.50;99.90
39503;DHT22;26970;49.900;10.774;2022-08-21T09:48:56;20.00;99.90
39503;DHT22;26970;49.900;10.774;2022-08-21T09:54:17;20.60;99.90
39503;DHT22;26970;49.900;10.774;2022-08-21T09:57:00;20.70;99.90
39503;DHT22;26970;49.900;10.774;2022-08-21T09:59:46;21.00;99.90
39503;DHT22;26970;49.900;10.774;2022-08-21T10:04:59;21.40;99.90
39503;DHT22;26970;49.900;10.774;2022-08-21T10:07:29;21.50;99.90
39503;DHT22;26970;49.900;10.774;2022-08-21T10:10:22;21.30;99.90
39503;DHT22;26970;49.900;10.774;2022-08-21T10:13:19;21.40;99.90
39503;DHT22;26970;49.900;10.774;2022-08-21T10:16:03;21.40;99.90
39503;DHT22;26970;49.900;10.774;2022-08-21T10:18:56;21.30;99.90
39503;DHT22;26970;49.900;10.774;2022-08-21T10:24:35;21.70;99.90
39503;DHT22;26970;49.900;10.774;2022-08-21T10:34:10;22.10;99.90
39503;DHT22;26970;49.900;10.774;2022-08-21T10:37:18;22.60;99.90
39503;DHT22;26970;49.900;10.774;2022-08-21T10:39:51;22.70;99.90
39503;DHT22;26970;49.900;10.774;2022-08-21T10:42:42;22.60;99.90
39503;DHT22;26970;49.900;10.774;2022-08-21T10:45:22;22.50;99.90
39503;DHT22;26970;49.900;10.774;2022-08-21T10:47:56;22.60;99.90
39503;DHT22;26970;49.900;10.774;2022-08-21T10:50:35;22.90;99.90
39503;DHT22;26970;49.900;10.774;2022-08-21T10:55:43;22.40;99.90
39503;DHT22;26970;49.900;10.774;2022-08-21T10:58:12;21.90;99.90
39503;DHT22;26970;49.900;10.774;2022-08-21T11:00:48;21.80;99.90
39503;DHT22;26970;49.900;10.774;2022-08-21T11:05:55;21.80;99.90
39503;DHT22;26970;49.900;10.774;2022-08-21T11:08:38;21.60;99.90
39503;DHT22;26970;49.900;10.774;2022-08-21T11:11:18;21.90;99.90
39503;DHT22;26970;49.900;10.774;2022-08-21T11:14:01;22.40;99.90
39503;DHT22;26970;49.900;10.774;2022-08-21T11:16:44;22.70;99.90
39503;DHT22;26970;49.900;10.774;2022-08-21T11:19:21;22.90;99.90
39503;DHT22;26970;49.900;10.774;2022-08-21T11:27:24;22.70;99.90
39503;DHT22;26970;49.900;10.774;2022-08-21T11:29:56;22.80;99.90
39503;DHT22;26970;49.900;10.774;2022-08-21T11:35:01;23.10;99.90
39503;DHT22;26970;49.900;10.774;2022-08-21T11:37:36;23.20;99.90
39503;DHT22;26970;49.900;10.774;2022-08-21T11:40:40;23.40;99.90
39503;DHT22;26970;49.900;10.774;2022-08-21T11:43:46;23.40;99.90
39503;DHT22;26970;49.900;10.774;2022-08-21T11:54:40;23.10;99.90
39503;DHT22;26970;49.900;10.774;2022-08-21T11:57:34;23.20;99.90
39503;DHT22;26970;49.900;10.774;2022-08-21T12:00:06;23.50;99.90
39503;DHT22;26970;49.900;10.774;2022-08-21T12:02:39;23.70;99.90
39503;DHT22;26970;49.900;10.774;2022-08-21T12:05:09;23.70;99.90
39503;DHT22;26970;49.900;10.774;2022-08-21T12:07:41;23.50;99.90
39503;DHT22;26970;49.900;10.774;2022-08-21T12:10:14;23.80;99.90
39503;DHT22;26970;49.900;10.774;2022-08-21T12:12:42;23.90;99.90
39503;DHT22;26970;49.900;10.774;2022-08-21T12:15:23;24.00;99.90
39503;DHT22;26970;49.900;10.774;2022-08-21T12:21:03;23.90;99.90
39503;DHT22;26970;49.900;10.774;2022-08-21T12:23:32;23.60;99.90
39503;DHT22;26970;49.900;10.774;2022-08-21T12:26:18;23.40;99.90
39503;DHT22;26970;49.900;10.774;2022-08-21T12:28:46;23.30;99.90
39503;DHT22;26970;49.900;10.774;2022-08-21T12:31:23;23.20;99.90
39503;DHT22;26970;49.900;10.774;2022-08-21T12:33:54;23.20;99.90
39503;DHT22;26970;49.900;10.774;2022-08-21T12:36:24;23.20;99.90
39503;DHT22;26970;49.900;10.774;2022-08-21T12:39:04;23.50;99.90
39503;DHT22;26970;49.900;10.774;2022-08-21T12:44:15;23.70;99.90
39503;DHT22;26970;49.900;10.774;2022-08-21T12:46:56;23.80;99.90
39503;DHT22;26970;49.900;10.774;2022-08-21T12:49:31;24.00;99.90
39503;DHT22;26970;49.900;10.774;2022-08-21T12:52:20;24.40;99.90
39503;DHT22;26970;49.900;10.774;2022-08-21T12:54:46;24.50;99.90
39503;DHT22;26970;49.900;10.774;2022-08-21T12:57:28;24.50;99.90
39503;DHT22;26970;49.900;10.774;2022-08-21T12:59:59;24.30;99.90
39503;DHT22;26970;49.900;10.774;2022-08-21T13:02:32;24.50;99.90
39503;DHT22;26970;49.900;10.774;2022-08-21T13:04:58;24.80;99.50
39503;DHT22;26970;49.900;10.774;2022-08-21T13:07:30;24.90;95.50
39503;DHT22;26970;49.900;10.774;2022-08-21T13:10:02;25.10;94.90
39503;DHT22;26970;49.900;10.774;2022-08-21T13:12:30;25.40;95.00
39503;DHT22;26970;49.900;10.774;2022-08-21T13:14:58;25.60;94.80
39503;DHT22;26970;49.900;10.774;2022-08-21T13:17:26;25.80;93.50
39503;DHT22;26970;49.900;10.774;2022-08-21T13:20:02;25.70;93.50
39503;DHT22;26970;49.900;10.774;2022-08-21T13:22:28;25.80;93.60
39503;DHT22;26970;49.900;10.774;2022-08-21T13:24:54;26.10;93.30
39503;DHT22;26970;49.900;10.774;2022-08-21T13:27:28;26.20;92.50
39503;DHT22;26970;49.900;10.774;2022-08-21T13:30:11;26.20;92.40
39503;DHT22;26970;49.900;10.774;2022-08-21T13:32:46;26.30;92.30
39503;DHT22;26970;49.900;10.774;2022-08-21T13:35:20;26.40;91.60
39503;DHT22;26970;49.900;10.774;2022-08-21T13:37:47;26.40;91.70
39503;DHT22;26970;49.900;10.774;2022-08-21T13:40:17;26.50;91.50
39503;DHT22;26970;49.900;10.774;2022-08-21T13:42:46;26.60;91.30
39503;DHT22;26970;49.900;10.774;2022-08-21T13:45:24;26.80;90.90
39503;DHT22;26970;49.900;10.774;2022-08-21T13:47:50;26.80;89.20
39503;DHT22;26970;49.900;10.774;2022-08-21T13:50:18;26.70;87.90
39503;DHT22;26970;49.900;10.774;2022-08-21T13:52:50;26.00;87.10
39503;DHT22;26970;49.900;10.774;2022-08-21T13:55:19;26.20;93.90
39503;DHT22;26970;49.900;10.774;2022-08-21T13:57:44;26.20;89.40
39503;DHT22;26970;49.900;10.774;2022-08-21T14:00:27;26.50;98.30
39503;DHT22;26970;49.900;10.774;2022-08-21T14:02:54;26.40;86.60
39503;DHT22;26970;49.900;10.774;2022-08-21T14:05:31;26.30;85.60
39503;DHT22;26970;49.900;10.774;2022-08-21T14:08:15;26.70;94.80
39503;DHT22;26970;49.900;10.774;2022-08-21T14:10:49;26.90;85.60
39503;DHT22;26970;49.900;10.774;2022-08-21T14:13:40;26.40;86.50
39503;DHT22;26970;49.900;10.774;2022-08-21T14:18:53;25.40;87.50
39503;DHT22;26970;49.900;10.774;2022-08-21T14:21:33;24.70;88.90
39503;DHT22;26970;49.900;10.774;2022-08-21T14:24:02;25.00;95.20
39503;DHT22;26970;49.900;10.774;2022-08-21T14:28:59;25.10;88.10
39503;DHT22;26970;49.900;10.774;2022-08-21T14:31:29;25.30;88.90
39503;DHT22;26970;49.900;10.774;2022-08-21T14:36:22;25.30;89.00
39503;DHT22;26970;49.900;10.774;2022-08-21T14:38:47;25.30;89.00
39503;DHT22;26970;49.900;10.774;2022-08-21T14:41:18;25.50;89.60
39503;DHT22;26970;49.900;10.774;2022-08-21T14:43:44;25.60;89.10
39503;DHT22;26970;49.900;10.774;2022-08-21T14:46:18;25.90;87.20
39503;DHT22;26970;49.900;10.774;2022-08-21T14:51:12;25.80;95.30
39503;DHT22;26970;49.900;10.774;2022-08-21T14:53:38;25.70;88.90
39503;DHT22;26970;49.900;10.774;2022-08-21T14:56:04;25.90;88.30
39503;DHT22;26970;49.900;10.774;2022-08-21T14:58:30;26.10;94.40
39503;DHT22;26970;49.900;10.774;2022-08-21T15:08:16;26.10;86.70
39503;DHT22;26970;49.900;10.774;2022-08-21T15:13:08;26.20;85.90
39503;DHT22;26970;49.900;10.774;2022-08-21T15:15:39;26.10;83.40
39503;DHT22;26970;49.900;10.774;2022-08-21T15:20:31;26.10;91.50
39503;DHT22;26970;49.900;10.774;2022-08-21T15:22:57;26.20;92.90
39503;DHT22;26970;49.900;10.774;2022-08-21T15:25:23;26.30;83.60
39503;DHT22;26970;49.900;10.774;2022-08-21T15:27:48;26.30;83.40
39503;DHT22;26970;49.900;10.774;2022-08-21T15:30:14;26.10;84.00
39503;DHT22;26970;49.900;10.774;2022-08-21T15:32:39;25.90;84.10
39503;DHT22;26970;49.900;10.774;2022-08-21T15:35:07;25.70;84.40
39503;DHT22;26970;49.900;10.774;2022-08-21T15:37:33;25.70;86.10
39503;DHT22;26970;49.900;10.774;2022-08-21T15:39:58;25.60;84.70
39503;DHT22;26970;49.900;10.774;2022-08-21T15:42:25;25.50;84.80
39503;DHT22;26970;49.900;10.774;2022-08-21T15:44:55;25.50;84.50
39503;DHT22;26970;49.900;10.774;2022-08-21T15:47:25;25.40;84.50
39503;DHT22;26970;49.900;10.774;2022-08-21T15:49:51;25.30;84.30
39503;DHT22;26970;49.900;10.774;2022-08-21T15:52:19;25.30;83.90
39503;DHT22;26970;49.900;10.774;2022-08-21T15:54:45;25.30;84.30
39503;DHT22;26970;49.900;10.774;2022-08-21T15:57:14;25.30;84.20
39503;DHT22;26970;49.900;10.774;2022-08-21T15:59:43;25.00;92.90
39503;DHT22;26970;49.900;10.774;2022-08-21T16:02:14;25.50;83.60
39503;DHT22;26970;49.900;10.774;2022-08-21T16:04:40;25.40;83.40
39503;DHT22;26970;49.900;10.774;2022-08-21T16:07:06;25.40;83.80
39503;DHT22;26970;49.900;10.774;2022-08-21T16:09:32;27.00;85.20
39503;DHT22;26970;49.900;10.774;2022-08-21T16:11:59;25.30;83.80
39503;DHT22;26970;49.900;10.774;2022-08-21T16:14:24;25.60;84.40
39503;DHT22;26970;49.900;10.774;2022-08-21T16:16:51;25.40;82.80
39503;DHT22;26970;49.900;10.774;2022-08-21T16:19:17;25.50;83.70
39503;DHT22;26970;49.900;10.774;2022-08-21T16:21:43;26.10;83.80
39503;DHT22;26970;49.900;10.774;2022-08-21T16:24:09;25.70;81.70
39503;DHT22;26970;49.900;10.774;2022-08-21T16:26:37;25.70;79.80
39503;DHT22;26970;49.900;10.774;2022-08-21T16:29:06;25.60;89.00
39503;DHT22;26970;49.900;10.774;2022-08-21T16:31:33;25.60;80.20
39503;DHT22;26970;49.900;10.774;2022-08-21T16:33:58;25.50;80.80
39503;DHT22;26970;49.900;10.774;2022-08-21T16:36:25;25.50;81.10
39503;DHT22;26970;49.900;10.774;2022-08-21T16:38:52;25.50;90.30
39503;DHT22;26970;49.900;10.774;2022-08-21T16:41:20;25.30;81.20
39503;DHT22;26970;49.900;10.774;2022-08-21T16:43:48;25.10;81.50
39503;DHT22;26970;49.900;10.774;2022-08-21T16:46:15;25.20;81.70
39503;DHT22;26970;49.900;10.774;2022-08-21T16:48:42;25.10;81.10
39503;DHT22;26970;49.900;10.774;2022-08-21T16:51:14;25.10;81.20